createdAt,value
2022-12-04T00:00:27.716Z,38.6
2022-12-04T00:02:29.723Z,37.8
2022-12-04T00:07:36.194Z,37.1
2022-12-04T00:09:38.122Z,39.4
2022-12-04T00:11:43.238Z,41.4
2022-12-04T00:13:45.212Z,40.7
2022-12-04T00:15:47.187Z,38.9
2022-12-04T00:17:49.144Z,38
2022-12-04T00:21:53.087Z,36
2022-12-04T00:23:55.073Z,38.3
2022-12-04T00:26:00.209Z,42.7
2022-12-04T00:28:02.166Z,38.4
2022-12-04T00:30:04.102Z,38.5
2022-12-04T00:32:06.185Z,40.9
2022-12-04T00:34:08.454Z,39.5
2022-12-04T00:36:10.029Z,41.8
2022-12-04T00:38:11.992Z,38.2
2022-12-04T00:40:17.126Z,40.3
2022-12-04T00:42:19.092Z,39.5
2022-12-04T00:44:21.069Z,41.8
2022-12-04T00:46:23.159Z,38
2022-12-04T00:48:24.986Z,40.9
2022-12-04T00:50:26.937Z,39.3
2022-12-04T00:52:28.917Z,41.7
2022-12-04T00:54:34.066Z,43.8
2022-12-04T00:58:38.007Z,40.2
2022-12-04T00:59:40.566Z,44
2022-12-04T01:01:42.619Z,40.8
2022-12-04T01:05:46.504Z,37.2
2022-12-04T01:07:51.668Z,41.1
2022-12-04T01:09:53.827Z,41.7
2022-12-04T01:11:55.563Z,40.5
2022-12-04T01:13:57.505Z,40
2022-12-04T01:15:59.499Z,40.7
2022-12-04T01:18:01.412Z,39.2
2022-12-04T01:20:03.410Z,41.8
2022-12-04T01:22:08.483Z,42.9
2022-12-04T01:24:10.467Z,41.6
2022-12-04T01:32:18.306Z,39.8
2022-12-04T01:34:20.410Z,41
2022-12-04T01:40:29.313Z,41.4
2022-12-04T01:46:35.226Z,41.2
2022-12-04T01:48:37.173Z,41.1
2022-12-04T01:50:42.295Z,46.2
2022-12-04T01:59:05.097Z,40.4
2022-12-04T02:01:09.090Z,38.6
2022-12-04T02:03:12.233Z,44.3
2022-12-04T02:05:14.220Z,40.8
2022-12-04T02:07:16.146Z,37.5
2022-12-04T02:09:23.048Z,44.4
2022-12-04T02:11:20.077Z,42.3
2022-12-04T02:13:22.012Z,41.1
2022-12-04T02:17:29.150Z,39.3
2022-12-04T02:19:31.083Z,38.8
2022-12-04T02:25:36.986Z,40.6
2022-12-04T02:27:38.988Z,38.6
2022-12-04T02:29:40.890Z,35.2
2022-12-04T02:35:49.944Z,38.3
2022-12-04T02:37:51.909Z,42.8
2022-12-04T02:39:54.282Z,41
2022-12-04T02:41:55.835Z,43
2022-12-04T02:43:57.815Z,38.6
2022-12-04T02:46:03.034Z,43.2
2022-12-04T02:48:04.890Z,41.2
2022-12-04T02:50:06.834Z,41.4
2022-12-04T02:53:11.354Z,43.7
2022-12-04T02:55:14.886Z,40.7
2022-12-04T02:59:21.896Z,40.1
2022-12-04T03:03:25.840Z,42.7
2022-12-04T03:07:29.806Z,48.1
2022-12-04T03:09:31.761Z,42.7
2022-12-04T03:11:33.720Z,40
2022-12-04T03:15:40.785Z,41.1
2022-12-04T03:17:42.756Z,43.9
2022-12-04T03:19:44.696Z,41.1
2022-12-04T03:21:46.648Z,39.4
2022-12-04T03:23:48.605Z,44.3
2022-12-04T03:25:50.586Z,43.6
2022-12-04T03:27:55.681Z,44.6
2022-12-04T03:29:57.889Z,41.8
2022-12-04T03:31:59.602Z,40.4
2022-12-04T03:34:01.569Z,39.9
2022-12-04T03:36:03.531Z,39.3
2022-12-04T03:38:05.489Z,44.2
2022-12-04T03:40:07.451Z,41.5
2022-12-04T03:42:12.565Z,46.1
2022-12-04T03:44:14.532Z,42.1
2022-12-04T03:46:16.564Z,40.8
2022-12-04T03:47:19.060Z,44.2
2022-12-04T03:49:21.007Z,44.4
2022-12-04T03:51:22.958Z,43.8
2022-12-04T03:53:24.916Z,39.2
2022-12-04T03:55:30.039Z,47.8
2022-12-04T03:57:31.995Z,43.8
2022-12-04T03:59:33.950Z,44.2
2022-12-04T04:01:36.020Z,43
2022-12-04T04:05:39.837Z,45.3
2022-12-04T04:21:58.670Z,43.4
2022-12-04T04:24:03.774Z,43.6
2022-12-04T04:26:05.763Z,44.2
2022-12-04T04:28:07.723Z,43.3
2022-12-04T04:30:09.684Z,39
2022-12-04T04:32:11.625Z,44.7
2022-12-04T04:34:13.598Z,42.4
2022-12-04T04:36:15.573Z,39.9
2022-12-04T04:38:20.677Z,41.3
2022-12-04T04:40:22.628Z,42.5
2022-12-04T04:42:24.597Z,39.7
2022-12-04T04:43:27.162Z,42.3
2022-12-04T04:45:29.151Z,39.7
2022-12-04T04:47:31.111Z,40.3
2022-12-04T04:49:33.072Z,39.2
2022-12-04T04:53:40.166Z,37.2
2022-12-04T04:55:42.120Z,39.6
2022-12-04T04:57:44.089Z,45.6
2022-12-04T04:59:46.031Z,38.6
2022-12-04T05:03:49.968Z,37.7
2022-12-04T05:05:55.084Z,44
2022-12-04T05:07:57.117Z,42.6
2022-12-04T05:09:59.329Z,45.2
2022-12-04T05:12:00.962Z,38.8
2022-12-04T05:14:02.928Z,39.8
2022-12-04T05:16:04.933Z,39.1
2022-12-04T05:18:06.870Z,39.2
2022-12-04T05:20:11.954Z,42
2022-12-04T05:22:13.905Z,36.9
2022-12-04T05:24:15.897Z,41.8
2022-12-04T05:26:17.859Z,39.2
2022-12-04T05:28:19.786Z,39.9
2022-12-04T05:30:21.793Z,43.3
2022-12-04T05:32:23.734Z,41.7
2022-12-04T05:34:28.896Z,43.1
2022-12-04T05:36:30.853Z,42
2022-12-04T05:38:32.799Z,39.9
2022-12-04T05:40:55.752Z,42.7
2022-12-04T05:44:59.674Z,42.4
2022-12-04T05:47:04.872Z,40.5
2022-12-04T05:49:06.772Z,36.2
2022-12-04T05:51:08.706Z,41.4
2022-12-04T05:53:10.700Z,42.8
2022-12-04T05:55:12.660Z,40.2
2022-12-04T05:57:14.615Z,40.9
2022-12-04T05:59:16.558Z,38.9
2022-12-04T06:01:21.687Z,43
2022-12-04T06:03:23.787Z,41
2022-12-04T06:05:25.624Z,41.3
2022-12-04T06:07:27.695Z,38.9
2022-12-04T06:09:29.536Z,39.6
2022-12-04T06:11:31.497Z,38.9
2022-12-04T06:13:33.487Z,39.2
2022-12-04T06:17:40.529Z,45.9
2022-12-04T06:19:42.487Z,38.7
2022-12-04T06:23:46.438Z,43.3
2022-12-04T06:25:48.409Z,38.4
2022-12-04T06:27:50.364Z,41.7
2022-12-04T06:29:55.999Z,40.9
2022-12-04T06:31:57.530Z,41.2
2022-12-04T06:33:59.410Z,38.7
2022-12-04T06:35:01.958Z,42.6
2022-12-04T06:37:03.917Z,40.1
2022-12-04T06:39:05.869Z,38.2
2022-12-04T06:43:12.989Z,44.7
2022-12-04T06:45:14.935Z,41.3
2022-12-04T06:47:16.896Z,41.3
2022-12-04T06:49:18.858Z,40.6
2022-12-04T06:51:20.815Z,40.2
2022-12-04T06:53:22.783Z,39.6
2022-12-04T06:55:24.757Z,41.4
2022-12-04T06:57:29.886Z,41.4
2022-12-04T06:59:31.818Z,43.3
2022-12-04T07:01:33.935Z,43.6
2022-12-04T07:03:35.750Z,40.1
2022-12-04T07:05:37.727Z,38.3
2022-12-04T07:07:39.740Z,41.3
2022-12-04T07:09:41.636Z,44.1
2022-12-04T07:11:46.763Z,43.7
2022-12-04T07:13:48.725Z,41.9
2022-12-04T07:15:50.695Z,39
2022-12-04T07:17:52.681Z,44.5
2022-12-04T07:19:54.838Z,40.2
2022-12-04T07:21:56.642Z,40.7
2022-12-04T07:23:58.556Z,40.3
2022-12-04T07:26:03.679Z,45.2
2022-12-04T07:28:05.638Z,40.4
2022-12-04T07:30:12.460Z,40.2
2022-12-04T07:33:12.122Z,41.1
2022-12-04T07:35:14.104Z,40
2022-12-04T07:37:16.052Z,45.3
2022-12-04T07:39:21.156Z,42.3
2022-12-04T07:41:23.123Z,42.3
2022-12-04T07:45:27.044Z,40.6
2022-12-04T07:49:30.953Z,42.8
2022-12-04T07:55:39.992Z,38.7
2022-12-04T07:57:42.143Z,39.9
2022-12-04T07:59:43.900Z,44.4
2022-12-04T08:01:45.941Z,43.1
2022-12-04T08:03:48.901Z,37.3
2022-12-04T08:05:49.806Z,41.2
2022-12-04T08:07:55.022Z,40.5
2022-12-04T08:14:00.844Z,39.4
2022-12-04T08:16:02.752Z,35.4
2022-12-04T08:18:04.725Z,41.2
2022-12-04T08:20:06.688Z,39.5
2022-12-04T08:22:11.844Z,38.6
2022-12-04T08:24:13.767Z,42.6
2022-12-04T08:26:15.691Z,42.7
2022-12-04T08:29:20.232Z,40.3
2022-12-04T08:33:24.162Z,40.5
2022-12-04T08:35:29.257Z,41.1
2022-12-04T08:37:31.236Z,40.3
2022-12-04T08:43:37.122Z,39.2
2022-12-04T08:47:42.556Z,38.8
2022-12-04T08:51:49.608Z,35.1
2022-12-04T08:53:51.565Z,33
2022-12-04T08:55:53.546Z,34.6
2022-12-04T08:57:55.522Z,33.2
2022-12-04T09:06:06.516Z,30.7
2022-12-04T09:08:08.572Z,30.5
2022-12-04T09:10:10.446Z,33.1
2022-12-04T09:12:12.407Z,29.9
2022-12-04T09:14:14.365Z,31.5
2022-12-04T09:18:21.457Z,28.6
2022-12-04T09:20:23.445Z,27.7
2022-12-04T09:22:25.392Z,30.2
2022-12-04T09:24:48.553Z,24.8
2022-12-04T09:26:50.500Z,31.5
2022-12-04T09:28:52.486Z,31
2022-12-04T09:30:57.679Z,26.5
2022-12-04T09:32:59.584Z,27.1
2022-12-04T09:35:01.554Z,29.5
2022-12-04T09:37:03.524Z,30.9
2022-12-04T09:39:05.643Z,30.2
2022-12-04T09:41:07.446Z,27
2022-12-04T09:43:09.418Z,25.3
2022-12-04T09:45:14.552Z,29.1
2022-12-04T09:47:16.514Z,27
2022-12-04T09:51:20.454Z,24.2
2022-12-04T09:53:22.419Z,26.3
2022-12-04T09:55:24.412Z,24.6
2022-12-04T09:57:26.366Z,25.6
2022-12-04T09:59:31.501Z,25.9
2022-12-04T10:01:33.456Z,26.3
2022-12-04T10:03:35.548Z,27.5
2022-12-04T10:05:37.366Z,25.3
2022-12-04T10:07:39.376Z,23.5
2022-12-04T10:09:41.366Z,24.7
2022-12-04T10:11:43.294Z,24.3
2022-12-04T10:13:48.409Z,22.5
2022-12-04T10:15:50.501Z,23.7
2022-12-04T10:17:52.368Z,22.4
2022-12-04T10:18:54.949Z,24.7
2022-12-04T10:25:00.835Z,20.4
2022-12-04T10:29:07.980Z,19.3
2022-12-04T10:31:09.948Z,21.6
2022-12-04T10:33:11.899Z,19.9
2022-12-04T10:35:13.901Z,19.4
2022-12-04T10:37:15.872Z,21.5
2022-12-04T10:39:17.858Z,18.8
2022-12-04T10:41:22.963Z,17.3
2022-12-04T10:43:24.954Z,18.7
2022-12-04T10:45:27.065Z,20.7
2022-12-04T10:47:28.932Z,16.8
2022-12-04T10:49:30.914Z,19.7
2022-12-04T10:51:32.917Z,15.9
2022-12-04T10:53:34.877Z,18.6
2022-12-04T10:55:40.011Z,19.8
2022-12-04T10:57:42.000Z,18.5
2022-12-04T10:59:43.973Z,18.8
2022-12-04T11:01:46.041Z,18.5
2022-12-04T11:03:47.935Z,18.6
2022-12-04T11:05:50.073Z,18
2022-12-04T11:07:51.923Z,19.3
2022-12-04T11:09:57.485Z,19.4
2022-12-04T11:11:59.013Z,18.4
2022-12-04T11:14:00.994Z,18.8
2022-12-04T11:15:03.539Z,17.4
2022-12-04T11:17:05.559Z,17.3
2022-12-04T11:19:07.535Z,20.1
2022-12-04T11:21:09.518Z,17.5
2022-12-04T11:23:14.646Z,18.6
2022-12-04T11:25:16.640Z,19.1
2022-12-04T11:27:18.658Z,18.2
2022-12-04T11:29:20.626Z,17.5
2022-12-04T11:31:22.684Z,18.3
2022-12-04T11:33:24.573Z,19.5
2022-12-04T11:35:26.562Z,16.5
2022-12-04T11:37:31.713Z,18.2
2022-12-04T11:39:33.680Z,19.2
2022-12-04T11:41:35.837Z,18.2
2022-12-04T11:43:37.642Z,19.1
2022-12-04T11:45:39.630Z,16.7
2022-12-04T11:47:41.610Z,17.8
2022-12-04T11:49:43.964Z,19.6
2022-12-04T11:51:48.727Z,17.7
2022-12-04T11:53:50.751Z,18.8
2022-12-04T11:55:52.694Z,19.9
2022-12-04T11:57:54.680Z,18.6
2022-12-04T11:59:56.959Z,18
2022-12-04T12:01:58.981Z,19.2
2022-12-04T12:04:00.648Z,19.8
2022-12-04T12:06:05.830Z,19.2
2022-12-04T12:08:07.793Z,22
2022-12-04T12:10:09.777Z,19.4
2022-12-04T12:11:12.349Z,19.5
2022-12-04T12:13:14.344Z,19.9
2022-12-04T12:15:16.325Z,18.8
2022-12-04T12:27:31.453Z,18.7
2022-12-04T12:29:33.429Z,21
2022-12-04T12:31:35.478Z,21.1
2022-12-04T12:35:42.547Z,27.7
2022-12-04T12:37:44.514Z,25.8
2022-12-04T12:39:46.525Z,23.7
2022-12-04T12:41:48.525Z,19.8
2022-12-04T12:45:52.657Z,21.5
2022-12-04T12:49:59.628Z,22.2
2022-12-04T12:52:01.614Z,22
2022-12-04T12:54:03.653Z,23.1
2022-12-04T12:56:05.571Z,21
2022-12-04T12:58:07.694Z,20.9
2022-12-04T13:00:09.497Z,21.8
2022-12-04T13:02:14.676Z,25.4
2022-12-04T13:04:16.564Z,23.8
2022-12-04T13:06:18.547Z,24.3
2022-12-04T13:08:35.564Z,25
2022-12-04T13:10:37.555Z,24.5
2022-12-04T13:12:39.560Z,23.9
2022-12-04T13:14:48.825Z,25.6
2022-12-04T13:16:46.804Z,27.1
2022-12-04T13:18:48.700Z,26.5
2022-12-04T13:20:50.698Z,30.1
2022-12-04T13:22:52.684Z,27.8
2022-12-04T13:24:54.688Z,25.5
2022-12-04T13:26:56.643Z,27.3
2022-12-04T13:29:01.816Z,28.4
2022-12-04T13:31:03.828Z,29.7
2022-12-04T13:33:05.812Z,29.9
2022-12-04T13:35:07.802Z,29.7
2022-12-04T13:37:09.785Z,28.2
2022-12-04T13:39:11.777Z,38.8
2022-12-04T13:41:13.762Z,35.2
2022-12-04T13:43:18.921Z,39
2022-12-04T13:45:20.896Z,32.9
2022-12-04T13:47:22.906Z,39.8
2022-12-04T13:49:24.904Z,34
2022-12-04T13:53:28.861Z,35.1
2022-12-04T13:55:30.845Z,32.8
2022-12-04T13:57:35.996Z,30.1
2022-12-04T13:59:37.999Z,33.7
2022-12-04T14:01:40.093Z,35.7
2022-12-04T14:02:42.609Z,32.6
2022-12-04T14:04:44.545Z,32.4
2022-12-04T14:06:46.544Z,32.3
2022-12-04T14:10:53.792Z,35.5
2022-12-04T14:16:59.823Z,35
2022-12-04T14:21:03.731Z,33.3
2022-12-04T14:25:10.871Z,31.8
2022-12-04T14:27:12.955Z,32
2022-12-04T14:33:18.818Z,32.1
2022-12-04T14:35:20.767Z,32
2022-12-04T14:37:22.788Z,31
2022-12-04T14:41:31.429Z,33
2022-12-04T14:43:33.404Z,34.5
2022-12-04T14:45:35.411Z,32.6
2022-12-04T14:49:39.389Z,36.4
2022-12-04T14:51:41.371Z,34.6
2022-12-04T14:53:46.510Z,33.3
2022-12-04T14:55:48.493Z,29.9
2022-12-04T14:57:50.500Z,31
2022-12-04T15:00:55.095Z,32.3
2022-12-04T15:02:57.147Z,30.1
2022-12-04T15:04:59.401Z,33.2
2022-12-04T15:07:04.195Z,30.5
2022-12-04T15:09:06.186Z,32
2022-12-04T15:11:08.153Z,29.5
2022-12-04T15:13:10.158Z,27.8
2022-12-04T15:15:12.137Z,31.8
2022-12-04T15:17:14.127Z,33.8
2022-12-04T15:19:16.854Z,29.6
2022-12-04T15:25:25.239Z,30.4
2022-12-04T15:27:32.107Z,30.3
2022-12-04T15:29:29.259Z,31.3
2022-12-04T15:31:31.461Z,29.8
2022-12-04T15:33:33.224Z,31.2
2022-12-04T15:35:38.350Z,32.9
2022-12-04T15:37:40.354Z,31.9
2022-12-04T15:41:44.483Z,33.2
2022-12-04T15:43:46.352Z,32.2
2022-12-04T15:45:48.343Z,30.5
2022-12-04T15:49:55.999Z,34.5
2022-12-04T15:51:57.490Z,29
2022-12-04T15:53:59.488Z,33.1
2022-12-04T15:55:02.066Z,32.1
2022-12-04T15:57:04.082Z,31.5
2022-12-04T15:59:06.054Z,33
2022-12-04T16:01:08.120Z,32.7
2022-12-04T16:03:13.268Z,32.9
2022-12-04T16:05:15.274Z,32
2022-12-04T16:07:17.254Z,30.7
2022-12-04T16:09:19.253Z,30.8
2022-12-04T16:13:23.257Z,30.9
2022-12-04T16:15:25.265Z,30.9
2022-12-04T16:21:34.432Z,28.6
2022-12-04T16:23:36.433Z,30.2
2022-12-04T16:31:47.653Z,28.1
2022-12-04T16:33:49.622Z,22.7
2022-12-04T16:35:51.661Z,27.8
2022-12-04T16:39:55.666Z,25.9
2022-12-04T16:41:57.657Z,27.8
2022-12-04T16:46:04.917Z,27.4
2022-12-04T16:48:06.886Z,28.4
2022-12-04T16:50:08.883Z,29.3
2022-12-04T16:52:31.746Z,29.2
2022-12-04T16:54:33.776Z,28.6
2022-12-04T16:56:35.784Z,27
2022-12-04T16:58:40.949Z,35.7
2022-12-04T17:00:42.965Z,26.5
2022-12-04T17:02:44.966Z,27.9
2022-12-04T17:04:47.000Z,27.5
2022-12-04T17:06:48.999Z,25.8
2022-12-04T17:08:51.019Z,29.7
2022-12-04T17:10:53.021Z,30.2
2022-12-04T17:15:00.239Z,31.5
2022-12-04T17:17:02.250Z,35
2022-12-04T17:19:04.318Z,32
2022-12-04T17:21:06.232Z,34.1
2022-12-04T17:23:08.250Z,33.5
2022-12-04T17:27:15.438Z,35
2022-12-04T17:29:17.540Z,34.5
2022-12-04T17:31:19.515Z,34.4
2022-12-04T17:33:21.485Z,36.1
2022-12-04T17:35:23.480Z,36.9
2022-12-04T17:37:25.498Z,35.7
2022-12-04T17:39:27.515Z,34.4
2022-12-04T17:43:34.681Z,41.6
2022-12-04T17:46:39.391Z,36.4
2022-12-04T17:48:41.296Z,34.4
2022-12-04T17:50:43.307Z,36.9
2022-12-04T17:52:45.530Z,35.1
2022-12-04T17:54:50.724Z,36.8
2022-12-04T17:56:57.618Z,37.3
2022-12-04T17:58:54.718Z,34.2
2022-12-04T18:00:56.772Z,38
2022-12-04T18:02:58.783Z,37.9
2022-12-04T18:05:00.756Z,38.5
2022-12-04T18:07:02.744Z,34.1
2022-12-04T18:09:07.899Z,37.2
2022-12-04T18:11:09.907Z,38.5
2022-12-04T18:15:13.965Z,39
2022-12-04T18:17:15.978Z,36.5
2022-12-04T18:19:17.973Z,37.9
2022-12-04T18:23:25.213Z,42.9
2022-12-04T18:29:31.191Z,40
2022-12-04T18:33:35.203Z,39
2022-12-04T18:35:37.211Z,35.4
2022-12-04T18:41:46.383Z,36.1
2022-12-04T18:42:48.961Z,36.1
2022-12-04T18:44:50.963Z,37.2
2022-12-04T18:48:55.316Z,33
2022-12-04T18:51:00.472Z,38.8
2022-12-04T18:55:04.486Z,39.2
2022-12-04T18:57:06.485Z,43.7
2022-12-04T18:59:08.488Z,36.2
2022-12-04T19:01:10.538Z,41.8
2022-12-04T19:03:12.527Z,39.1
2022-12-04T19:05:17.660Z,39.9
2022-12-04T19:07:19.655Z,41
2022-12-04T19:09:23.213Z,40
2022-12-04T19:13:25.705Z,37.5
2022-12-04T19:15:27.708Z,38
2022-12-04T19:17:29.710Z,40.2
2022-12-04T19:19:34.892Z,41.1
2022-12-04T19:21:36.922Z,38.2
2022-12-04T19:23:38.920Z,39.5
2022-12-04T19:25:40.928Z,38.9
2022-12-04T19:27:42.935Z,38.4
2022-12-04T19:29:44.932Z,39.5
2022-12-04T19:31:47.042Z,39.3
2022-12-04T19:35:54.113Z,39.1
2022-12-04T19:37:56.121Z,37
2022-12-04T19:38:58.667Z,37.1
2022-12-04T19:41:00.709Z,40.8
2022-12-04T19:43:03.223Z,38.7
2022-12-04T19:45:04.714Z,42.1
2022-12-04T19:47:09.887Z,39.2
2022-12-04T19:49:11.880Z,41.9
2022-12-04T19:51:13.872Z,37.6
2022-12-04T19:53:15.907Z,39.5
2022-12-04T19:55:17.905Z,42.3
2022-12-04T19:57:19.916Z,40.3
2022-12-04T19:59:21.915Z,44.9
2022-12-04T20:01:27.203Z,44.6
2022-12-04T20:03:29.113Z,43.6
2022-12-04T20:05:31.093Z,36.5
2022-12-04T20:07:33.153Z,44.2
2022-12-04T20:09:35.117Z,39.5
2022-12-04T20:11:37.138Z,41.4
2022-12-04T20:13:39.140Z,40.7
2022-12-04T20:15:44.323Z,36.7
2022-12-04T20:17:46.286Z,44.9
2022-12-04T20:19:48.328Z,41.3
2022-12-04T20:25:54.329Z,39
2022-12-04T20:27:56.349Z,36.9
2022-12-04T20:30:03.046Z,40
2022-12-04T20:32:05.004Z,41
2022-12-04T20:34:07.027Z,41.6
2022-12-04T20:36:29.805Z,42
2022-12-04T20:38:31.798Z,39.1
2022-12-04T20:40:33.850Z,40.4
2022-12-04T20:42:39.033Z,39.2
2022-12-04T20:44:41.045Z,40.1
2022-12-04T20:46:43.196Z,40.4
2022-12-04T20:48:45.062Z,42.8
2022-12-04T20:50:47.087Z,40.9
2022-12-04T20:52:49.129Z,41
2022-12-04T20:54:51.157Z,36.8
2022-12-04T20:56:56.300Z,39.4
2022-12-04T20:58:58.332Z,42.1
2022-12-04T21:01:00.414Z,40.1
2022-12-04T21:03:02.415Z,41.4
2022-12-04T21:05:04.339Z,40.9
2022-12-04T21:07:06.349Z,41
2022-12-04T21:09:08.397Z,40.1
2022-12-04T21:11:13.551Z,40.3
2022-12-04T21:13:15.558Z,45.2
2022-12-04T21:15:17.592Z,36
2022-12-04T21:17:19.744Z,39.8
2022-12-04T21:23:25.638Z,36.7
2022-12-04T21:25:30.807Z,40
2022-12-04T21:27:32.817Z,36.7
2022-12-04T21:29:34.861Z,46.5
2022-12-04T21:30:37.429Z,41
2022-12-04T21:32:39.426Z,39.7
2022-12-04T21:34:41.432Z,44.3
2022-12-04T21:36:43.475Z,38.8
2022-12-04T21:38:48.657Z,39.6
2022-12-04T21:40:50.711Z,35.8
2022-12-04T21:42:52.684Z,39.9
2022-12-04T21:44:54.841Z,40.1
2022-12-04T21:46:56.819Z,38.7
2022-12-04T21:48:58.734Z,40.5
2022-12-04T21:51:00.761Z,36.7
2022-12-04T21:53:05.949Z,39.9
2022-12-04T21:55:08.089Z,36.7
2022-12-04T21:57:09.983Z,37.5
2022-12-04T21:59:11.984Z,37.4
2022-12-04T22:01:14.058Z,39.4
2022-12-04T22:03:16.137Z,37
2022-12-04T22:05:18.205Z,39.7
2022-12-04T22:07:23.225Z,38.5
2022-12-04T22:09:25.252Z,38.8
2022-12-04T22:11:27.236Z,38.6
2022-12-04T22:13:29.274Z,37.7
2022-12-04T22:15:31.298Z,38.9
2022-12-04T22:17:33.304Z,39.1
2022-12-04T22:19:35.334Z,37.8
2022-12-04T22:21:40.535Z,40.2
2022-12-04T22:23:42.526Z,38.7
2022-12-04T22:25:44.569Z,37.5
2022-12-04T22:26:47.175Z,36.3
2022-12-04T22:30:51.230Z,35.1
2022-12-04T22:32:53.197Z,36
2022-12-04T22:34:58.363Z,36.9
2022-12-04T22:37:00.393Z,32.5
2022-12-04T22:39:10.671Z,35.9
2022-12-04T22:41:04.421Z,32.5
2022-12-04T22:43:06.447Z,32.6
2022-12-04T22:45:08.475Z,32.5
2022-12-04T22:47:10.566Z,38.2
2022-12-04T22:49:15.647Z,34.8
2022-12-04T22:51:17.673Z,36.7
2022-12-04T22:53:19.673Z,35.5
2022-12-04T22:55:21.709Z,35.6
2022-12-04T22:57:23.737Z,32.3
2022-12-04T22:59:25.771Z,34.5
2022-12-04T23:01:27.855Z,33.5
2022-12-04T23:03:33.025Z,33.7
2022-12-04T23:05:35.005Z,33.2
2022-12-04T23:07:37.103Z,34.1
2022-12-04T23:09:39.042Z,35
2022-12-04T23:11:41.071Z,34.2
2022-12-04T23:13:43.084Z,32.5
2022-12-04T23:15:45.140Z,32.4
2022-12-04T23:17:50.284Z,35.4
2022-12-04T23:19:52.283Z,33.7
2022-12-04T23:22:56.905Z,33.6
2022-12-04T23:24:58.927Z,35.2
2022-12-04T23:27:00.987Z,33.5
2022-12-04T23:29:03.000Z,33.8
2022-12-04T23:31:08.220Z,32.1
2022-12-04T23:33:10.205Z,30.1
2022-12-04T23:35:12.228Z,35.4
2022-12-04T23:37:14.273Z,32.9
2022-12-04T23:39:16.282Z,36.6
2022-12-04T23:41:18.340Z,31.6
2022-12-04T23:43:20.346Z,33.6
2022-12-04T23:45:25.567Z,35.1
2022-12-04T23:47:27.561Z,35
2022-12-04T23:49:29.580Z,31.9
2022-12-04T23:53:33.668Z,34.3
2022-12-04T23:55:35.692Z,32.9
2022-12-04T23:57:37.724Z,31.3
2022-12-04T23:59:42.882Z,32.8
